首页
METAR-TAF:

METAR-TAF

机场 :

努瓦克肖特国际机场

努瓦克肖特, 毛里塔尼亚

纬度: 18-18-36N, 经度: 015-58-11W, 海拔: 3米

当前天气观测

该预报发布于22分钟前的02:00 UTC
风速10节,风向
温度 29°C
湿度 43%
气压 1009 hPa
能見度: 4000
高吹沙

METAR: GQNO 230200Z 36010KT 4000 BLSA NSC 29/15 Q1009 BECMG 3000 BLSA

时间: 02:22 (02:22 UTC)

预报

该预报发布于9小时和22分钟前的17:00 UTC
预报有效从22日的 18点(UTC)到 23日的 24点(UTC)
风速15节,风向西北
能見度: 6000
成为
从 22日的 20点(UTC)到 22日的 23点(UTC)
风速12节,风向西

TAF: GQNO 221700Z 2218/2324 32015KT 6000 NSC BECMG 2220/2223 26012KT

超过4000个机场的气象观测和天气预报(METAR&TAF报告)。

可查询的气象台以黄色和红色小点在地图上表示。

将鼠标移到小点上方,可查看气象台名称。

然后点击查看天气观测和预报。

如需切换地图:点击带黑十字的绿色按钮放大地图;点击带横线的绿色按钮缩小地图;或者点击绿色箭头查看邻近地区的地图。


METAR-TAF: